sensor_id;sensor_type;location;lat;lon;timestamp;P1;durP1;ratioP1;P2;durP2;ratioP2
77984;SDS011;67177;47.240;-1.546;2023-08-20T00:00:51;6.50;;;0.90;;
77984;SDS011;67177;47.240;-1.546;2023-08-20T00:03:17;6.13;;;1.00;;
77984;SDS011;67177;47.240;-1.546;2023-08-20T00:05:43;6.50;;;0.95;;
77984;SDS011;67177;47.240;-1.546;2023-08-20T00:08:09;5.37;;;1.00;;
77984;SDS011;67177;47.240;-1.546;2023-08-20T00:10:35;4.35;;;0.88;;
77984;SDS011;67177;47.240;-1.546;2023-08-20T00:13:01;7.57;;;1.33;;
77984;SDS011;67177;47.240;-1.546;2023-08-20T00:15:26;4.87;;;0.90;;
77984;SDS011;67177;47.240;-1.546;2023-08-20T00:17:53;5.80;;;1.10;;
77984;SDS011;67177;47.240;-1.546;2023-08-20T00:20:19;5.07;;;1.10;;
77984;SDS011;67177;47.240;-1.546;2023-08-20T00:22:45;7.07;;;1.30;;
77984;SDS011;67177;47.240;-1.546;2023-08-20T00:25:14;7.75;;;1.20;;
77984;SDS011;67177;47.240;-1.546;2023-08-20T00:27:42;5.93;;;1.30;;
77984;SDS011;67177;47.240;-1.546;2023-08-20T00:30:09;6.13;;;1.20;;
77984;SDS011;67177;47.240;-1.546;2023-08-20T00:32:35;5.22;;;1.20;;
77984;SDS011;67177;47.240;-1.546;2023-08-20T00:35:01;5.33;;;1.20;;
77984;SDS011;67177;47.240;-1.546;2023-08-20T00:37:28;5.78;;;1.15;;
77984;SDS011;67177;47.240;-1.546;2023-08-20T00:39:54;4.60;;;1.00;;
77984;SDS011;67177;47.240;-1.546;2023-08-20T00:42:20;4.57;;;0.90;;
77984;SDS011;67177;47.240;-1.546;2023-08-20T00:44:46;4.82;;;1.00;;
77984;SDS011;67177;47.240;-1.546;2023-08-20T00:47:12;4.20;;;0.90;;
77984;SDS011;67177;47.240;-1.546;2023-08-20T00:49:38;4.38;;;0.73;;
77984;SDS011;67177;47.240;-1.546;2023-08-20T00:52:06;4.35;;;0.82;;
77984;SDS011;67177;47.240;-1.546;2023-08-20T00:54:34;4.57;;;0.80;;
77984;SDS011;67177;47.240;-1.546;2023-08-20T00:57:00;4.85;;;1.02;;
77984;SDS011;67177;47.240;-1.546;2023-08-20T00:59:27;5.30;;;1.10;;
77984;SDS011;67177;47.240;-1.546;2023-08-20T01:01:54;3.92;;;0.90;;
77984;SDS011;67177;47.240;-1.546;2023-08-20T01:04:20;3.75;;;0.80;;
77984;SDS011;67177;47.240;-1.546;2023-08-20T01:12:20;4.10;;;1.00;;
77984;SDS011;67177;47.240;-1.546;2023-08-20T01:14:47;2.70;;;0.60;;
77984;SDS011;67177;47.240;-1.546;2023-08-20T01:17:13;4.47;;;0.80;;
77984;SDS011;67177;47.240;-1.546;2023-08-20T01:19:38;5.43;;;0.80;;
77984;SDS011;67177;47.240;-1.546;2023-08-20T01:30:24;3.17;;;0.80;;
77984;SDS011;67177;47.240;-1.546;2023-08-20T01:32:50;4.00;;;0.80;;
77984;SDS011;67177;47.240;-1.546;2023-08-20T01:35:18;2.95;;;0.60;;
77984;SDS011;67177;47.240;-1.546;2023-08-20T01:37:44;3.40;;;0.70;;
77984;SDS011;67177;47.240;-1.546;2023-08-20T01:40:10;3.17;;;0.60;;
77984;SDS011;67177;47.240;-1.546;2023-08-20T01:42:36;2.33;;;0.60;;
77984;SDS011;67177;47.240;-1.546;2023-08-20T01:45:03;2.67;;;0.55;;
77984;SDS011;67177;47.240;-1.546;2023-08-20T01:47:29;2.97;;;0.63;;
77984;SDS011;67177;47.240;-1.546;2023-08-20T01:49:55;1.88;;;0.50;;
77984;SDS011;67177;47.240;-1.546;2023-08-20T01:52:20;2.00;;;0.60;;
77984;SDS011;67177;47.240;-1.546;2023-08-20T01:54:47;2.58;;;0.40;;
77984;SDS011;67177;47.240;-1.546;2023-08-20T01:57:13;2.57;;;0.60;;
77984;SDS011;67177;47.240;-1.546;2023-08-20T01:59:39;2.33;;;0.50;;
77984;SDS011;67177;47.240;-1.546;2023-08-20T02:02:04;1.67;;;0.40;;
77984;SDS011;67177;47.240;-1.546;2023-08-20T02:04:31;2.50;;;0.50;;
77984;SDS011;67177;47.240;-1.546;2023-08-20T02:06:57;1.73;;;0.50;;
77984;SDS011;67177;47.240;-1.546;2023-08-20T02:09:23;1.58;;;0.50;;
77984;SDS011;67177;47.240;-1.546;2023-08-20T02:11:49;1.90;;;0.50;;
77984;SDS011;67177;47.240;-1.546;2023-08-20T02:14:16;1.70;;;0.43;;
77984;SDS011;67177;47.240;-1.546;2023-08-20T02:16:41;1.67;;;0.50;;
77984;SDS011;67177;47.240;-1.546;2023-08-20T02:19:07;1.73;;;0.50;;
77984;SDS011;67177;47.240;-1.546;2023-08-20T02:21:33;2.17;;;0.50;;
77984;SDS011;67177;47.240;-1.546;2023-08-20T02:23:59;2.20;;;0.50;;
77984;SDS011;67177;47.240;-1.546;2023-08-20T02:26:25;3.17;;;0.60;;
77984;SDS011;67177;47.240;-1.546;2023-08-20T02:28:51;1.67;;;0.47;;
77984;SDS011;67177;47.240;-1.546;2023-08-20T02:31:16;1.50;;;0.47;;
77984;SDS011;67177;47.240;-1.546;2023-08-20T02:33:42;1.80;;;0.40;;
77984;SDS011;67177;47.240;-1.546;2023-08-20T02:36:08;1.90;;;0.50;;
77984;SDS011;67177;47.240;-1.546;2023-08-20T02:38:33;1.73;;;0.50;;
77984;SDS011;67177;47.240;-1.546;2023-08-20T02:41:00;1.43;;;0.50;;
77984;SDS011;67177;47.240;-1.546;2023-08-20T02:43:26;1.73;;;0.47;;
77984;SDS011;67177;47.240;-1.546;2023-08-20T02:45:52;1.83;;;0.50;;
77984;SDS011;67177;47.240;-1.546;2023-08-20T02:48:17;2.55;;;0.50;;
77984;SDS011;67177;47.240;-1.546;2023-08-20T02:50:43;2.13;;;0.50;;
77984;SDS011;67177;47.240;-1.546;2023-08-20T02:53:09;2.28;;;0.52;;
77984;SDS011;67177;47.240;-1.546;2023-08-20T02:55:35;3.22;;;0.60;;
77984;SDS011;67177;47.240;-1.546;2023-08-20T02:58:01;2.50;;;0.60;;
77984;SDS011;67177;47.240;-1.546;2023-08-20T03:00:29;2.45;;;0.50;;
77984;SDS011;67177;47.240;-1.546;2023-08-20T03:02:55;4.20;;;0.90;;
77984;SDS011;67177;47.240;-1.546;2023-08-20T03:05:21;2.87;;;0.70;;
77984;SDS011;67177;47.240;-1.546;2023-08-20T03:07:47;2.47;;;0.70;;
77984;SDS011;67177;47.240;-1.546;2023-08-20T03:10:13;2.72;;;0.60;;
77984;SDS011;67177;47.240;-1.546;2023-08-20T03:12:38;3.40;;;0.57;;
77984;SDS011;67177;47.240;-1.546;2023-08-20T03:15:04;3.00;;;0.60;;
77984;SDS011;67177;47.240;-1.546;2023-08-20T03:17:30;2.30;;;0.60;;
77984;SDS011;67177;47.240;-1.546;2023-08-20T03:19:56;2.70;;;0.60;;
77984;SDS011;67177;47.240;-1.546;2023-08-20T03:22:23;4.13;;;0.80;;
77984;SDS011;67177;47.240;-1.546;2023-08-20T03:24:49;3.13;;;0.70;;
77984;SDS011;67177;47.240;-1.546;2023-08-20T03:27:16;3.58;;;0.70;;
77984;SDS011;67177;47.240;-1.546;2023-08-20T03:29:42;4.22;;;0.80;;
77984;SDS011;67177;47.240;-1.546;2023-08-20T03:32:08;3.03;;;0.90;;
77984;SDS011;67177;47.240;-1.546;2023-08-20T03:34:34;3.40;;;0.80;;
77984;SDS011;67177;47.240;-1.546;2023-08-20T03:37:00;4.70;;;1.02;;
77984;SDS011;67177;47.240;-1.546;2023-08-20T03:39:26;7.07;;;1.40;;
77984;SDS011;67177;47.240;-1.546;2023-08-20T03:41:52;4.00;;;1.00;;
77984;SDS011;67177;47.240;-1.546;2023-08-20T03:44:18;5.13;;;1.10;;
77984;SDS011;67177;47.240;-1.546;2023-08-20T03:46:44;5.07;;;1.10;;
77984;SDS011;67177;47.240;-1.546;2023-08-20T03:49:10;3.10;;;0.90;;
77984;SDS011;67177;47.240;-1.546;2023-08-20T03:51:36;4.55;;;0.90;;
77984;SDS011;67177;47.240;-1.546;2023-08-20T03:54:02;3.90;;;1.00;;
77984;SDS011;67177;47.240;-1.546;2023-08-20T03:56:28;3.25;;;0.80;;
77984;SDS011;67177;47.240;-1.546;2023-08-20T03:58:54;4.35;;;0.90;;
77984;SDS011;67177;47.240;-1.546;2023-08-20T04:01:20;3.47;;;0.70;;
77984;SDS011;67177;47.240;-1.546;2023-08-20T04:03:46;3.03;;;0.60;;
77984;SDS011;67177;47.240;-1.546;2023-08-20T04:06:13;3.80;;;0.77;;
77984;SDS011;67177;47.240;-1.546;2023-08-20T04:08:39;4.05;;;0.70;;
77984;SDS011;67177;47.240;-1.546;2023-08-20T04:11:05;3.90;;;1.00;;
77984;SDS011;67177;47.240;-1.546;2023-08-20T04:13:31;3.37;;;0.80;;
77984;SDS011;67177;47.240;-1.546;2023-08-20T04:15:56;2.95;;;0.77;;
77984;SDS011;67177;47.240;-1.546;2023-08-20T04:18:22;6.35;;;1.13;;
77984;SDS011;67177;47.240;-1.546;2023-08-20T04:20:51;3.83;;;0.90;;
77984;SDS011;67177;47.240;-1.546;2023-08-20T04:23:18;3.63;;;0.82;;
77984;SDS011;67177;47.240;-1.546;2023-08-20T04:25:45;3.63;;;0.90;;
77984;SDS011;67177;47.240;-1.546;2023-08-20T04:28:11;4.57;;;0.73;;
77984;SDS011;67177;47.240;-1.546;2023-08-20T04:30:37;4.47;;;0.90;;
77984;SDS011;67177;47.240;-1.546;2023-08-20T04:33:03;3.70;;;1.17;;
77984;SDS011;67177;47.240;-1.546;2023-08-20T04:35:29;4.97;;;1.10;;
77984;SDS011;67177;47.240;-1.546;2023-08-20T04:37:55;3.78;;;0.90;;
77984;SDS011;67177;47.240;-1.546;2023-08-20T04:40:21;4.03;;;0.93;;
77984;SDS011;67177;47.240;-1.546;2023-08-20T04:42:46;3.58;;;0.90;;
77984;SDS011;67177;47.240;-1.546;2023-08-20T04:45:12;2.97;;;0.70;;
77984;SDS011;67177;47.240;-1.546;2023-08-20T04:47:38;4.03;;;1.00;;
77984;SDS011;67177;47.240;-1.546;2023-08-20T04:50:04;5.13;;;0.90;;
77984;SDS011;67177;47.240;-1.546;2023-08-20T04:52:33;4.07;;;0.90;;
77984;SDS011;67177;47.240;-1.546;2023-08-20T04:55:00;3.17;;;0.90;;
77984;SDS011;67177;47.240;-1.546;2023-08-20T04:57:26;3.28;;;0.77;;
77984;SDS011;67177;47.240;-1.546;2023-08-20T04:59:52;3.20;;;0.70;;
77984;SDS011;67177;47.240;-1.546;2023-08-20T05:02:17;3.45;;;0.70;;
77984;SDS011;67177;47.240;-1.546;2023-08-20T05:04:43;4.37;;;0.80;;
77984;SDS011;67177;47.240;-1.546;2023-08-20T05:07:09;4.30;;;0.70;;
77984;SDS011;67177;47.240;-1.546;2023-08-20T05:09:34;3.87;;;0.90;;
77984;SDS011;67177;47.240;-1.546;2023-08-20T05:12:00;3.70;;;0.83;;
77984;SDS011;67177;47.240;-1.546;2023-08-20T05:14:27;3.65;;;0.88;;
77984;SDS011;67177;47.240;-1.546;2023-08-20T05:16:53;2.58;;;0.68;;
77984;SDS011;67177;47.240;-1.546;2023-08-20T05:19:18;2.57;;;0.60;;
77984;SDS011;67177;47.240;-1.546;2023-08-20T05:21:44;3.83;;;0.77;;
77984;SDS011;67177;47.240;-1.546;2023-08-20T05:24:10;3.03;;;0.70;;
77984;SDS011;67177;47.240;-1.546;2023-08-20T05:26:36;1.90;;;0.60;;
77984;SDS011;67177;47.240;-1.546;2023-08-20T05:29:02;3.90;;;0.67;;
77984;SDS011;67177;47.240;-1.546;2023-08-20T05:31:27;2.60;;;0.70;;
77984;SDS011;67177;47.240;-1.546;2023-08-20T05:33:53;3.83;;;0.70;;
77984;SDS011;67177;47.240;-1.546;2023-08-20T05:36:19;2.92;;;0.70;;
77984;SDS011;67177;47.240;-1.546;2023-08-20T05:38:44;2.30;;;0.60;;
77984;SDS011;67177;47.240;-1.546;2023-08-20T05:41:10;2.22;;;0.50;;
77984;SDS011;67177;47.240;-1.546;2023-08-20T05:43:36;2.87;;;0.70;;
77984;SDS011;67177;47.240;-1.546;2023-08-20T05:46:01;4.40;;;0.80;;
77984;SDS011;67177;47.240;-1.546;2023-08-20T05:48:28;2.58;;;0.60;;
77984;SDS011;67177;47.240;-1.546;2023-08-20T05:50:54;3.53;;;0.90;;
77984;SDS011;67177;47.240;-1.546;2023-08-20T05:53:21;4.57;;;0.77;;
77984;SDS011;67177;47.240;-1.546;2023-08-20T05:55:47;3.33;;;0.80;;
77984;SDS011;67177;47.240;-1.546;2023-08-20T05:58:13;2.80;;;0.73;;
77984;SDS011;67177;47.240;-1.546;2023-08-20T06:00:39;3.35;;;0.70;;
77984;SDS011;67177;47.240;-1.546;2023-08-20T06:03:05;3.53;;;0.68;;
77984;SDS011;67177;47.240;-1.546;2023-08-20T06:05:32;3.22;;;0.70;;
77984;SDS011;67177;47.240;-1.546;2023-08-20T06:07:58;3.28;;;0.70;;
77984;SDS011;67177;47.240;-1.546;2023-08-20T06:10:24;2.97;;;0.70;;
77984;SDS011;67177;47.240;-1.546;2023-08-20T06:12:49;2.63;;;0.60;;
77984;SDS011;67177;47.240;-1.546;2023-08-20T06:15:15;2.70;;;0.60;;
77984;SDS011;67177;47.240;-1.546;2023-08-20T06:17:41;6.15;;;0.90;;
77984;SDS011;67177;47.240;-1.546;2023-08-20T06:20:07;4.63;;;1.08;;
77984;SDS011;67177;47.240;-1.546;2023-08-20T06:22:33;4.60;;;1.00;;
77984;SDS011;67177;47.240;-1.546;2023-08-20T06:24:59;3.77;;;0.80;;
77984;SDS011;67177;47.240;-1.546;2023-08-20T06:27:25;3.33;;;0.90;;
77984;SDS011;67177;47.240;-1.546;2023-08-20T06:29:51;3.90;;;0.80;;
77984;SDS011;67177;47.240;-1.546;2023-08-20T06:32:16;3.40;;;0.70;;
77984;SDS011;67177;47.240;-1.546;2023-08-20T06:34:42;5.40;;;1.00;;
77984;SDS011;67177;47.240;-1.546;2023-08-20T06:37:08;2.60;;;0.70;;
77984;SDS011;67177;47.240;-1.546;2023-08-20T06:39:33;3.67;;;0.77;;
77984;SDS011;67177;47.240;-1.546;2023-08-20T06:41:59;4.97;;;1.00;;
77984;SDS011;67177;47.240;-1.546;2023-08-20T06:44:25;3.57;;;0.90;;
77984;SDS011;67177;47.240;-1.546;2023-08-20T06:46:51;6.25;;;1.00;;
77984;SDS011;67177;47.240;-1.546;2023-08-20T06:49:16;4.47;;;0.90;;
77984;SDS011;67177;47.240;-1.546;2023-08-20T06:51:42;3.10;;;0.80;;
77984;SDS011;67177;47.240;-1.546;2023-08-20T06:54:08;4.10;;;0.90;;
77984;SDS011;67177;47.240;-1.546;2023-08-20T06:56:34;3.30;;;0.80;;
77984;SDS011;67177;47.240;-1.546;2023-08-20T06:59:00;2.60;;;0.70;;
77984;SDS011;67177;47.240;-1.546;2023-08-20T07:01:28;2.78;;;0.80;;
77984;SDS011;67177;47.240;-1.546;2023-08-20T07:03:54;3.47;;;0.80;;
77984;SDS011;67177;47.240;-1.546;2023-08-20T07:06:19;4.13;;;0.80;;
77984;SDS011;67177;47.240;-1.546;2023-08-20T07:08:45;2.63;;;0.65;;
77984;SDS011;67177;47.240;-1.546;2023-08-20T07:11:11;3.45;;;0.80;;
77984;SDS011;67177;47.240;-1.546;2023-08-20T07:13:37;2.40;;;0.77;;
77984;SDS011;67177;47.240;-1.546;2023-08-20T07:16:02;2.30;;;0.60;;
77984;SDS011;67177;47.240;-1.546;2023-08-20T07:18:28;3.25;;;0.70;;
77984;SDS011;67177;47.240;-1.546;2023-08-20T07:20:54;4.73;;;1.00;;
77984;SDS011;67177;47.240;-1.546;2023-08-20T07:23:21;3.53;;;0.80;;
77984;SDS011;67177;47.240;-1.546;2023-08-20T07:25:47;3.42;;;0.77;;
77984;SDS011;67177;47.240;-1.546;2023-08-20T07:28:13;3.90;;;0.80;;
77984;SDS011;67177;47.240;-1.546;2023-08-20T07:30:40;3.25;;;0.90;;
77984;SDS011;67177;47.240;-1.546;2023-08-20T07:33:06;4.70;;;1.00;;
77984;SDS011;67177;47.240;-1.546;2023-08-20T07:35:32;4.35;;;0.80;;
77984;SDS011;67177;47.240;-1.546;2023-08-20T07:37:58;3.97;;;0.70;;
77984;SDS011;67177;47.240;-1.546;2023-08-20T07:40:24;6.20;;;1.00;;
77984;SDS011;67177;47.240;-1.546;2023-08-20T07:42:50;5.97;;;1.13;;
77984;SDS011;67177;47.240;-1.546;2023-08-20T07:45:16;4.68;;;0.90;;
77984;SDS011;67177;47.240;-1.546;2023-08-20T07:47:42;5.03;;;1.00;;
77984;SDS011;67177;47.240;-1.546;2023-08-20T07:50:07;5.47;;;1.15;;
77984;SDS011;67177;47.240;-1.546;2023-08-20T07:52:33;4.17;;;0.83;;
77984;SDS011;67177;47.240;-1.546;2023-08-20T07:54:59;5.07;;;0.90;;
77984;SDS011;67177;47.240;-1.546;2023-08-20T07:57:25;5.07;;;1.10;;
77984;SDS011;67177;47.240;-1.546;2023-08-20T07:59:51;5.20;;;1.00;;
77984;SDS011;67177;47.240;-1.546;2023-08-20T08:02:17;4.55;;;1.10;;
77984;SDS011;67177;47.240;-1.546;2023-08-20T08:04:43;3.90;;;0.80;;
77984;SDS011;67177;47.240;-1.546;2023-08-20T08:07:12;4.20;;;0.97;;
77984;SDS011;67177;47.240;-1.546;2023-08-20T08:09:37;5.38;;;0.88;;
77984;SDS011;67177;47.240;-1.546;2023-08-20T08:12:03;4.18;;;0.80;;
77984;SDS011;67177;47.240;-1.546;2023-08-20T08:14:30;3.93;;;0.97;;
77984;SDS011;67177;47.240;-1.546;2023-08-20T08:16:55;4.60;;;1.00;;
77984;SDS011;67177;47.240;-1.546;2023-08-20T08:19:21;3.42;;;0.80;;
77984;SDS011;67177;47.240;-1.546;2023-08-20T08:21:47;3.50;;;0.80;;
77984;SDS011;67177;47.240;-1.546;2023-08-20T08:24:13;4.63;;;0.90;;
77984;SDS011;67177;47.240;-1.546;2023-08-20T08:26:39;3.42;;;0.82;;
77984;SDS011;67177;47.240;-1.546;2023-08-20T08:29:06;2.75;;;0.80;;
77984;SDS011;67177;47.240;-1.546;2023-08-20T08:31:33;3.92;;;0.80;;
77984;SDS011;67177;47.240;-1.546;2023-08-20T08:33:58;5.10;;;1.08;;
77984;SDS011;67177;47.240;-1.546;2023-08-20T08:36:24;3.78;;;0.93;;
77984;SDS011;67177;47.240;-1.546;2023-08-20T08:38:51;4.63;;;1.00;;
77984;SDS011;67177;47.240;-1.546;2023-08-20T08:41:17;4.10;;;1.00;;
77984;SDS011;67177;47.240;-1.546;2023-08-20T08:43:46;5.88;;;1.27;;
77984;SDS011;67177;47.240;-1.546;2023-08-20T08:46:12;8.32;;;1.40;;
77984;SDS011;67177;47.240;-1.546;2023-08-20T08:48:39;4.32;;;1.15;;
77984;SDS011;67177;47.240;-1.546;2023-08-20T08:51:07;5.45;;;1.10;;
77984;SDS011;67177;47.240;-1.546;2023-08-20T08:53:33;5.13;;;1.07;;
77984;SDS011;67177;47.240;-1.546;2023-08-20T08:55:59;5.40;;;1.00;;
77984;SDS011;67177;47.240;-1.546;2023-08-20T08:58:27;5.10;;;1.13;;
77984;SDS011;67177;47.240;-1.546;2023-08-20T09:00:53;5.68;;;1.17;;
77984;SDS011;67177;47.240;-1.546;2023-08-20T09:03:20;4.57;;;0.95;;
77984;SDS011;67177;47.240;-1.546;2023-08-20T09:05:49;4.60;;;1.00;;
77984;SDS011;67177;47.240;-1.546;2023-08-20T09:08:31;4.60;;;1.00;;
77984;SDS011;67177;47.240;-1.546;2023-08-20T09:10:58;4.28;;;0.90;;
77984;SDS011;67177;47.240;-1.546;2023-08-20T09:13:25;3.92;;;0.90;;
77984;SDS011;67177;47.240;-1.546;2023-08-20T09:15:57;6.53;;;1.13;;
77984;SDS011;67177;47.240;-1.546;2023-08-20T09:18:23;4.30;;;0.87;;
77984;SDS011;67177;47.240;-1.546;2023-08-20T09:20:49;4.55;;;0.90;;
77984;SDS011;67177;47.240;-1.546;2023-08-20T09:23:15;4.18;;;0.82;;
77984;SDS011;67177;47.240;-1.546;2023-08-20T09:25:44;4.18;;;0.90;;
77984;SDS011;67177;47.240;-1.546;2023-08-20T09:28:10;4.60;;;0.88;;
77984;SDS011;67177;47.240;-1.546;2023-08-20T09:30:36;2.83;;;0.80;;
77984;SDS011;67177;47.240;-1.546;2023-08-20T09:33:07;3.13;;;0.80;;
77984;SDS011;67177;47.240;-1.546;2023-08-20T09:35:34;4.30;;;1.00;;
77984;SDS011;67177;47.240;-1.546;2023-08-20T09:38:00;3.78;;;0.80;;
77984;SDS011;67177;47.240;-1.546;2023-08-20T09:40:28;5.55;;;0.90;;
77984;SDS011;67177;47.240;-1.546;2023-08-20T09:42:54;4.13;;;0.95;;
77984;SDS011;67177;47.240;-1.546;2023-08-20T09:45:20;5.05;;;1.00;;
77984;SDS011;67177;47.240;-1.546;2023-08-20T09:47:48;4.30;;;0.93;;
77984;SDS011;67177;47.240;-1.546;2023-08-20T09:50:15;4.60;;;1.08;;
77984;SDS011;67177;47.240;-1.546;2023-08-20T09:53:01;4.63;;;1.10;;
77984;SDS011;67177;47.240;-1.546;2023-08-20T09:55:34;3.63;;;0.95;;
77984;SDS011;67177;47.240;-1.546;2023-08-20T09:58:03;5.97;;;1.02;;
77984;SDS011;67177;47.240;-1.546;2023-08-20T10:00:30;3.57;;;0.77;;
77984;SDS011;67177;47.240;-1.546;2023-08-20T10:02:58;4.97;;;0.98;;
77984;SDS011;67177;47.240;-1.546;2023-08-20T10:05:24;3.45;;;0.90;;
77984;SDS011;67177;47.240;-1.546;2023-08-20T10:07:51;3.80;;;0.90;;
77984;SDS011;67177;47.240;-1.546;2023-08-20T10:10:17;5.13;;;1.05;;
77984;SDS011;67177;47.240;-1.546;2023-08-20T10:12:43;4.07;;;0.80;;
77984;SDS011;67177;47.240;-1.546;2023-08-20T10:15:13;4.95;;;1.00;;
77984;SDS011;67177;47.240;-1.546;2023-08-20T10:17:41;5.22;;;1.10;;
77984;SDS011;67177;47.240;-1.546;2023-08-20T10:20:09;5.57;;;1.17;;
77984;SDS011;67177;47.240;-1.546;2023-08-20T10:22:44;4.40;;;0.95;;
77984;SDS011;67177;47.240;-1.546;2023-08-20T10:25:11;4.40;;;1.00;;
77984;SDS011;67177;47.240;-1.546;2023-08-20T10:27:47;4.78;;;0.80;;
77984;SDS011;67177;47.240;-1.546;2023-08-20T10:30:19;3.20;;;0.70;;
77984;SDS011;67177;47.240;-1.546;2023-08-20T10:35:25;2.88;;;0.73;;
77984;SDS011;67177;47.240;-1.546;2023-08-20T10:38:12;4.73;;;0.80;;
77984;SDS011;67177;47.240;-1.546;2023-08-20T10:40:55;3.25;;;0.80;;
77984;SDS011;67177;47.240;-1.546;2023-08-20T10:48:41;3.83;;;0.90;;
77984;SDS011;67177;47.240;-1.546;2023-08-20T10:53:39;4.18;;;0.90;;
77984;SDS011;67177;47.240;-1.546;2023-08-20T10:58:46;2.72;;;0.70;;
77984;SDS011;67177;47.240;-1.546;2023-08-20T11:01:22;4.13;;;0.90;;
77984;SDS011;67177;47.240;-1.546;2023-08-20T11:03:48;3.93;;;0.80;;
77984;SDS011;67177;47.240;-1.546;2023-08-20T11:06:15;3.15;;;0.80;;
77984;SDS011;67177;47.240;-1.546;2023-08-20T11:08:42;3.35;;;0.82;;
77984;SDS011;67177;47.240;-1.546;2023-08-20T11:11:08;3.28;;;0.80;;
77984;SDS011;67177;47.240;-1.546;2023-08-20T11:13:34;3.33;;;0.80;;
77984;SDS011;67177;47.240;-1.546;2023-08-20T11:16:02;3.10;;;0.80;;
77984;SDS011;67177;47.240;-1.546;2023-08-20T11:18:29;2.50;;;0.80;;
77984;SDS011;67177;47.240;-1.546;2023-08-20T11:20:56;3.83;;;0.80;;
77984;SDS011;67177;47.240;-1.546;2023-08-20T11:23:22;3.00;;;0.90;;
77984;SDS011;67177;47.240;-1.546;2023-08-20T11:25:48;3.53;;;0.80;;
77984;SDS011;67177;47.240;-1.546;2023-08-20T11:28:15;2.20;;;0.60;;
77984;SDS011;67177;47.240;-1.546;2023-08-20T11:30:40;2.43;;;0.67;;
77984;SDS011;67177;47.240;-1.546;2023-08-20T11:33:06;2.83;;;0.80;;
77984;SDS011;67177;47.240;-1.546;2023-08-20T11:35:32;3.15;;;0.80;;
77984;SDS011;67177;47.240;-1.546;2023-08-20T11:37:58;4.30;;;0.80;;
77984;SDS011;67177;47.240;-1.546;2023-08-20T11:40:24;3.13;;;0.80;;
77984;SDS011;67177;47.240;-1.546;2023-08-20T11:42:50;4.05;;;1.00;;
77984;SDS011;67177;47.240;-1.546;2023-08-20T11:45:16;3.80;;;0.98;;
77984;SDS011;67177;47.240;-1.546;2023-08-20T11:47:41;3.22;;;0.80;;
77984;SDS011;67177;47.240;-1.546;2023-08-20T11:50:08;4.60;;;0.90;;
77984;SDS011;67177;47.240;-1.546;2023-08-20T11:52:35;3.45;;;0.85;;
77984;SDS011;67177;47.240;-1.546;2023-08-20T11:55:02;3.80;;;1.00;;
77984;SDS011;67177;47.240;-1.546;2023-08-20T11:57:29;3.28;;;0.90;;
77984;SDS011;67177;47.240;-1.546;2023-08-20T11:59:55;4.43;;;0.93;;
77984;SDS011;67177;47.240;-1.546;2023-08-20T12:02:25;4.90;;;1.00;;
77984;SDS011;67177;47.240;-1.546;2023-08-20T12:04:57;4.18;;;0.98;;
77984;SDS011;67177;47.240;-1.546;2023-08-20T12:07:26;3.78;;;0.85;;
77984;SDS011;67177;47.240;-1.546;2023-08-20T12:09:52;3.47;;;0.80;;
77984;SDS011;67177;47.240;-1.546;2023-08-20T12:12:21;2.95;;;0.88;;
77984;SDS011;67177;47.240;-1.546;2023-08-20T12:14:47;6.73;;;1.03;;
77984;SDS011;67177;47.240;-1.546;2023-08-20T12:17:17;3.60;;;0.80;;
77984;SDS011;67177;47.240;-1.546;2023-08-20T12:19:44;3.70;;;0.85;;
77984;SDS011;67177;47.240;-1.546;2023-08-20T12:22:09;4.22;;;0.80;;
77984;SDS011;67177;47.240;-1.546;2023-08-20T12:24:35;3.43;;;0.77;;
77984;SDS011;67177;47.240;-1.546;2023-08-20T12:27:01;4.40;;;0.90;;
77984;SDS011;67177;47.240;-1.546;2023-08-20T12:29:27;3.17;;;0.80;;
77984;SDS011;67177;47.240;-1.546;2023-08-20T12:31:53;3.78;;;0.80;;
77984;SDS011;67177;47.240;-1.546;2023-08-20T12:34:19;3.67;;;0.90;;
77984;SDS011;67177;47.240;-1.546;2023-08-20T12:36:46;3.40;;;0.70;;
77984;SDS011;67177;47.240;-1.546;2023-08-20T12:39:13;4.03;;;0.80;;
77984;SDS011;67177;47.240;-1.546;2023-08-20T12:41:39;3.58;;;0.77;;
77984;SDS011;67177;47.240;-1.546;2023-08-20T12:44:04;2.57;;;0.73;;
77984;SDS011;67177;47.240;-1.546;2023-08-20T12:46:30;3.38;;;0.82;;
77984;SDS011;67177;47.240;-1.546;2023-08-20T12:48:56;3.20;;;0.90;;
77984;SDS011;67177;47.240;-1.546;2023-08-20T12:51:22;3.10;;;0.80;;
77984;SDS011;67177;47.240;-1.546;2023-08-20T12:53:47;2.80;;;0.70;;
77984;SDS011;67177;47.240;-1.546;2023-08-20T12:56:14;5.07;;;0.90;;
77984;SDS011;67177;47.240;-1.546;2023-08-20T12:58:41;2.78;;;0.75;;
77984;SDS011;67177;47.240;-1.546;2023-08-20T13:01:06;3.40;;;0.77;;
77984;SDS011;67177;47.240;-1.546;2023-08-20T13:03:32;3.22;;;0.70;;
77984;SDS011;67177;47.240;-1.546;2023-08-20T13:05:58;4.05;;;0.82;;
77984;SDS011;67177;47.240;-1.546;2023-08-20T13:08:24;2.83;;;0.80;;
77984;SDS011;67177;47.240;-1.546;2023-08-20T13:10:52;3.42;;;0.85;;
77984;SDS011;67177;47.240;-1.546;2023-08-20T13:13:21;2.50;;;0.70;;
77984;SDS011;67177;47.240;-1.546;2023-08-20T13:15:48;2.50;;;0.70;;
77984;SDS011;67177;47.240;-1.546;2023-08-20T13:18:15;2.78;;;0.70;;
77984;SDS011;67177;47.240;-1.546;2023-08-20T13:20:41;2.92;;;0.70;;
77984;SDS011;67177;47.240;-1.546;2023-08-20T13:23:08;2.75;;;0.60;;
77984;SDS011;67177;47.240;-1.546;2023-08-20T13:25:34;3.28;;;0.93;;
77984;SDS011;67177;47.240;-1.546;2023-08-20T13:28:00;3.43;;;0.83;;
77984;SDS011;67177;47.240;-1.546;2023-08-20T13:30:26;3.55;;;0.70;;
77984;SDS011;67177;47.240;-1.546;2023-08-20T13:32:51;2.67;;;0.60;;
77984;SDS011;67177;47.240;-1.546;2023-08-20T13:35:17;3.72;;;0.90;;
77984;SDS011;67177;47.240;-1.546;2023-08-20T13:37:43;2.50;;;0.70;;
77984;SDS011;67177;47.240;-1.546;2023-08-20T13:40:09;3.78;;;0.90;;
77984;SDS011;67177;47.240;-1.546;2023-08-20T13:42:35;3.10;;;0.80;;
77984;SDS011;67177;47.240;-1.546;2023-08-20T13:45:01;3.55;;;0.80;;
77984;SDS011;67177;47.240;-1.546;2023-08-20T13:47:27;3.38;;;0.75;;
77984;SDS011;67177;47.240;-1.546;2023-08-20T13:49:53;3.28;;;0.80;;
77984;SDS011;67177;47.240;-1.546;2023-08-20T13:52:19;2.90;;;0.80;;
77984;SDS011;67177;47.240;-1.546;2023-08-20T13:54:45;2.92;;;0.75;;
77984;SDS011;67177;47.240;-1.546;2023-08-20T13:57:11;3.47;;;0.80;;
77984;SDS011;67177;47.240;-1.546;2023-08-20T13:59:37;3.08;;;0.80;;
77984;SDS011;67177;47.240;-1.546;2023-08-20T14:02:03;2.70;;;0.70;;
77984;SDS011;67177;47.240;-1.546;2023-08-20T14:04:30;3.58;;;0.80;;
77984;SDS011;67177;47.240;-1.546;2023-08-20T14:06:56;2.97;;;0.83;;
77984;SDS011;67177;47.240;-1.546;2023-08-20T14:09:21;2.63;;;0.70;;
77984;SDS011;67177;47.240;-1.546;2023-08-20T14:11:47;2.85;;;0.77;;
77984;SDS011;67177;47.240;-1.546;2023-08-20T14:14:13;2.22;;;0.60;;
77984;SDS011;67177;47.240;-1.546;2023-08-20T14:16:39;2.40;;;0.60;;
77984;SDS011;67177;47.240;-1.546;2023-08-20T14:19:05;2.67;;;0.70;;
77984;SDS011;67177;47.240;-1.546;2023-08-20T14:21:30;2.92;;;0.70;;
77984;SDS011;67177;47.240;-1.546;2023-08-20T14:23:56;2.63;;;0.70;;
77984;SDS011;67177;47.240;-1.546;2023-08-20T14:26:22;2.13;;;0.60;;
77984;SDS011;67177;47.240;-1.546;2023-08-20T14:28:48;2.47;;;0.65;;
77984;SDS011;67177;47.240;-1.546;2023-08-20T14:31:13;1.45;;;0.50;;
77984;SDS011;67177;47.240;-1.546;2023-08-20T14:33:39;2.30;;;0.63;;
77984;SDS011;67177;47.240;-1.546;2023-08-20T14:36:05;2.17;;;0.63;;
77984;SDS011;67177;47.240;-1.546;2023-08-20T14:38:30;2.47;;;0.70;;
77984;SDS011;67177;47.240;-1.546;2023-08-20T14:41:00;2.88;;;0.60;;
77984;SDS011;67177;47.240;-1.546;2023-08-20T14:43:26;2.60;;;0.67;;
77984;SDS011;67177;47.240;-1.546;2023-08-20T14:45:52;2.35;;;0.70;;
77984;SDS011;67177;47.240;-1.546;2023-08-20T14:48:19;3.53;;;0.80;;
77984;SDS011;67177;47.240;-1.546;2023-08-20T14:50:45;2.50;;;0.60;;
77984;SDS011;67177;47.240;-1.546;2023-08-20T14:53:11;3.23;;;0.77;;
77984;SDS011;67177;47.240;-1.546;2023-08-20T14:55:36;1.60;;;0.60;;